createdAt,value
2022-12-14T00:04:44.341Z,-11.69
2022-12-14T00:09:48.616Z,-11.47
2022-12-14T00:14:51.528Z,-11.35
2022-12-14T00:19:54.957Z,-11.41
2022-12-14T00:24:59.500Z,-11.47
2022-12-14T00:30:02.506Z,-11.43
2022-12-14T00:35:06.125Z,-11.46
2022-12-14T00:40:11.682Z,-11.77
2022-12-14T00:45:14.656Z,-11.29
2022-12-14T00:50:17.811Z,-11.19
2022-12-14T00:55:22.073Z,-11.50
2022-12-14T01:00:25.023Z,-11.83
2022-12-14T01:05:27.950Z,-11.92
2022-12-14T01:10:32.261Z,-11.50
2022-12-14T01:15:36.126Z,-11.37
2022-12-14T01:20:39.066Z,-11.34
2022-12-14T01:25:43.368Z,-11.20
2022-12-14T01:30:46.381Z,-11.30
2022-12-14T01:35:49.273Z,-11.12
2022-12-14T01:40:58.390Z,-11.14
2022-12-14T01:46:01.360Z,-11.07
2022-12-14T01:51:04.363Z,-10.99
2022-12-14T01:56:09.013Z,-11.26
2022-12-14T02:01:12.575Z,-11.00
2022-12-14T02:06:20.180Z,-11.05
2022-12-14T02:11:32.566Z,-10.97
2022-12-14T02:16:37.016Z,-11.02
2022-12-14T02:22:07.991Z,-10.97
2022-12-14T02:27:27.507Z,-11.01
2022-12-14T02:32:48.839Z,-11.11
2022-12-14T02:38:01.956Z,-11.06
2022-12-14T02:43:15.533Z,-11.02
2022-12-14T02:48:24.116Z,-11.06
2022-12-14T02:53:33.050Z,-10.80
2022-12-14T02:58:40.076Z,-10.72
2022-12-14T03:03:44.596Z,-10.56
2022-12-14T03:08:48.427Z,-10.57
2022-12-14T03:13:56.975Z,-10.71
2022-12-14T03:19:07.358Z,-10.69
2022-12-14T03:24:13.624Z,-10.55
2022-12-14T03:29:22.194Z,-10.41
2022-12-14T03:34:36.883Z,-10.47
2022-12-14T03:39:42.970Z,-10.50
2022-12-14T03:44:56.981Z,-10.46
2022-12-14T03:50:04.706Z,-10.35
2022-12-14T03:55:19.364Z,-10.26
2022-12-14T04:00:25.291Z,-10.30
2022-12-14T04:05:42.888Z,-10.39
2022-12-14T04:11:11.303Z,-10.38
2022-12-14T04:16:50.358Z,-10.23
2022-12-14T04:21:57.674Z,-10.18
2022-12-14T04:27:06.614Z,-10.09
2022-12-14T04:32:14.667Z,-10.00
2022-12-14T04:37:23.587Z,-10.04
2022-12-14T04:42:30.536Z,-10.04
2022-12-14T04:47:38.446Z,-9.93
2022-12-14T04:52:48.910Z,-9.89
2022-12-14T04:57:56.426Z,-9.84
2022-12-14T05:03:17.899Z,-9.62
2022-12-14T05:08:31.327Z,-9.66
2022-12-14T05:13:40.126Z,-9.64
2022-12-14T05:18:44.563Z,-9.62
2022-12-14T05:23:48.792Z,-9.61
2022-12-14T05:28:51.699Z,-9.52
2022-12-14T05:33:54.560Z,-9.49
2022-12-14T05:38:58.847Z,-9.30
2022-12-14T05:44:01.794Z,-9.43
2022-12-14T05:49:04.955Z,-9.28
2022-12-14T05:54:09.175Z,-9.16
2022-12-14T05:59:15.556Z,-8.81
2022-12-14T06:04:19.167Z,-8.66
2022-12-14T06:09:23.837Z,-8.66
2022-12-14T06:14:26.938Z,-8.63
2022-12-14T06:19:30.811Z,-8.52
2022-12-14T06:24:35.070Z,-8.31
2022-12-14T06:29:38.021Z,-8.22
2022-12-14T06:34:42.531Z,-8.21
2022-12-14T06:39:53.970Z,-8.18
2022-12-14T06:44:57.360Z,-8.19
2022-12-14T06:50:00.370Z,-8.10
2022-12-14T06:55:05.152Z,-8.17
2022-12-14T07:00:12.195Z,-8.12
2022-12-14T07:05:16.042Z,-8.04
2022-12-14T07:10:20.511Z,-8.08
2022-12-14T07:15:23.416Z,-8.09
2022-12-14T07:20:26.309Z,-8.02
2022-12-14T07:25:30.557Z,-7.85
2022-12-14T07:30:33.497Z,-7.73
2022-12-14T07:35:36.380Z,-7.77
2022-12-14T07:40:40.626Z,-7.80
2022-12-14T07:45:43.535Z,-7.71
2022-12-14T07:50:46.481Z,-7.67
2022-12-14T07:55:50.805Z,-7.64
2022-12-14T08:00:53.680Z,-7.30
2022-12-14T08:05:58.316Z,-7.08
2022-12-14T08:11:03.001Z,-6.81
2022-12-14T08:16:07.368Z,-6.61
2022-12-14T08:21:12.385Z,-6.60
2022-12-14T08:26:17.049Z,-6.70
2022-12-14T08:31:21.725Z,-6.30
2022-12-14T08:36:26.817Z,-6.39
2022-12-14T08:41:31.493Z,-6.35
2022-12-14T08:46:35.750Z,-6.03
2022-12-14T08:51:39.005Z,-5.72
2022-12-14T08:56:43.262Z,-5.95
2022-12-14T09:01:46.254Z,-5.92
2022-12-14T09:06:49.314Z,-6.29
2022-12-14T09:11:53.788Z,-6.32
2022-12-14T09:16:56.708Z,-6.27
2022-12-14T09:21:59.675Z,-6.13
2022-12-14T09:27:04.409Z,-6.02
2022-12-14T09:32:07.375Z,-5.65
2022-12-14T09:37:10.301Z,-5.14
2022-12-14T09:42:35.581Z,-4.91
2022-12-14T09:47:44.280Z,-4.53
2022-12-14T09:52:49.930Z,-4.58
2022-12-14T09:57:59.712Z,-4.46
2022-12-14T10:03:26.087Z,-4.06
2022-12-14T10:08:36.508Z,-4.03
2022-12-14T10:13:52.389Z,-3.86
2022-12-14T10:19:18.172Z,-3.94
2022-12-14T10:24:26.660Z,-3.75
2022-12-14T10:29:36.335Z,-3.69
2022-12-14T10:34:42.451Z,-3.82
2022-12-14T10:39:54.511Z,-3.73
2022-12-14T10:50:43.117Z,-3.85
2022-12-14T10:55:56.970Z,-3.83
2022-12-14T11:01:01.375Z,-3.99
2022-12-14T11:06:13.242Z,-4.07
2022-12-14T11:11:20.015Z,-3.94
2022-12-14T11:16:36.511Z,-4.18
2022-12-14T11:21:40.533Z,-3.82
2022-12-14T11:26:44.796Z,-4.03
2022-12-14T11:31:52.510Z,-3.87
2022-12-14T11:36:55.449Z,-3.78
2022-12-14T11:42:02.662Z,-4.22
2022-12-14T11:47:13.726Z,-3.57
2022-12-14T11:52:19.830Z,-3.50
2022-12-14T11:57:31.679Z,-3.80
2022-12-14T12:02:38.840Z,-3.19
2022-12-14T12:07:46.283Z,-3.42
2022-12-14T12:12:54.199Z,-3.22
2022-12-14T12:18:03.702Z,-3.18
2022-12-14T12:23:15.357Z,-2.98
2022-12-14T12:28:23.139Z,-3.04
2022-12-14T12:33:35.763Z,-3.44
2022-12-14T12:38:49.925Z,-3.14
2022-12-14T12:43:56.831Z,-3.10
2022-12-14T12:49:06.003Z,-3.22
2022-12-14T12:54:15.537Z,-3.37
2022-12-14T12:59:21.337Z,-3.37
2022-12-14T13:04:33.237Z,-3.54
2022-12-14T13:09:42.460Z,-3.27
2022-12-14T13:14:49.859Z,-3.09
2022-12-14T13:19:57.575Z,-3.00
2022-12-14T13:25:06.520Z,-3.20
2022-12-14T13:30:25.723Z,-3.05
2022-12-14T13:35:43.911Z,-3.11
2022-12-14T13:41:08.954Z,-3.26
2022-12-14T13:46:21.366Z,-3.17
2022-12-14T13:51:30.677Z,-3.04
2022-12-14T13:56:38.425Z,-3.25
2022-12-14T14:01:57.947Z,-3.37
2022-12-14T14:07:33.997Z,-3.28
2022-12-14T14:12:44.520Z,-3.45
2022-12-14T14:17:49.724Z,-3.58
2022-12-14T14:23:25.730Z,-3.68
2022-12-14T14:28:31.722Z,-3.51
2022-12-14T14:33:46.015Z,-3.53
2022-12-14T14:38:50.934Z,-3.62
2022-12-14T14:43:59.352Z,-3.53
2022-12-14T14:49:02.427Z,-3.60
2022-12-14T14:55:06.956Z,-3.45
2022-12-14T15:00:02.872Z,-3.51
2022-12-14T15:10:33.540Z,-3.52
2022-12-14T15:15:41.230Z,-3.41
2022-12-14T15:20:54.647Z,-3.39
2022-12-14T15:25:59.830Z,-3.44
2022-12-14T15:31:05.089Z,-3.43
2022-12-14T15:36:13.660Z,-3.62
2022-12-14T15:41:18.921Z,-3.55
2022-12-14T15:46:28.864Z,-3.92
2022-12-14T15:51:34.243Z,-3.82
2022-12-14T15:56:39.924Z,-3.45
2022-12-14T16:01:53.744Z,-3.38
2022-12-14T16:07:09.036Z,-3.63
2022-12-14T16:12:20.974Z,-3.88
2022-12-14T16:17:30.053Z,-3.90
2022-12-14T16:22:34.356Z,-3.77
2022-12-14T16:27:40.052Z,-3.66
2022-12-14T16:32:44.642Z,-3.73
2022-12-14T16:37:56.409Z,-3.73
2022-12-14T16:42:59.344Z,-3.68
2022-12-14T16:48:09.021Z,-4.05
2022-12-14T16:53:17.516Z,-3.90
2022-12-14T16:58:20.428Z,-3.85
2022-12-14T17:03:25.114Z,-3.85
2022-12-14T17:08:28.578Z,-3.87
2022-12-14T17:13:31.886Z,-4.05
2022-12-14T17:18:40.225Z,-4.09
2022-12-14T17:23:45.050Z,-4.00
2022-12-14T17:28:48.049Z,-4.14
2022-12-14T17:33:54.059Z,-4.29
2022-12-14T17:38:57.013Z,-4.18
2022-12-14T17:44:00.075Z,-4.27
2022-12-14T17:49:06.889Z,-4.30
2022-12-14T17:54:15.203Z,-4.39
2022-12-14T17:59:18.102Z,-4.52
2022-12-14T18:04:22.415Z,-4.63
2022-12-14T18:09:25.288Z,-4.50
2022-12-14T18:14:28.165Z,-4.53
2022-12-14T18:19:32.496Z,-4.51
2022-12-14T18:24:35.477Z,-4.51
2022-12-14T18:29:38.901Z,-4.56
2022-12-14T18:34:43.282Z,-4.61
2022-12-14T18:39:46.273Z,-4.58
2022-12-14T18:44:52.549Z,-4.58
2022-12-14T18:49:57.846Z,-4.62
2022-12-14T18:55:00.842Z,-4.81
2022-12-14T19:00:04.624Z,-5.04
2022-12-14T19:05:09.806Z,-4.97
2022-12-14T19:10:17.659Z,-4.91
2022-12-14T19:15:22.736Z,-4.87
2022-12-14T19:20:27.944Z,-4.86
2022-12-14T19:25:31.082Z,-4.90
2022-12-14T19:30:34.731Z,-4.94
2022-12-14T19:35:40.531Z,-4.80
2022-12-14T19:40:46.241Z,-4.79
2022-12-14T19:45:49.165Z,-4.88
2022-12-14T19:50:53.603Z,-4.79
2022-12-14T19:55:56.544Z,-4.91
2022-12-14T20:00:59.445Z,-4.82
2022-12-14T20:06:05.214Z,-4.76
2022-12-14T20:11:10.081Z,-4.86
2022-12-14T20:16:17.061Z,-4.77
2022-12-14T20:21:23.085Z,-4.73
2022-12-14T20:26:27.515Z,-4.82
2022-12-14T20:31:30.431Z,-4.87
2022-12-14T20:36:34.955Z,-4.97
2022-12-14T20:41:37.876Z,-5.06
2022-12-14T20:46:42.277Z,-5.33
2022-12-14T20:51:47.539Z,-5.57
2022-12-14T20:56:50.497Z,-5.63
2022-12-14T21:01:56.204Z,-5.62
2022-12-14T21:07:01.063Z,-5.76
2022-12-14T21:12:22.076Z,-6.21
2022-12-14T21:17:27.247Z,-6.33
2022-12-14T21:22:31.639Z,-6.41
2022-12-14T21:27:38.123Z,-6.52
2022-12-14T21:32:41.222Z,-6.48
2022-12-14T21:37:45.514Z,-6.40
2022-12-14T21:42:50.663Z,-6.42
2022-12-14T21:47:53.562Z,-6.62
2022-12-14T21:52:57.865Z,-6.54
2022-12-14T21:58:18.629Z,-6.85
2022-12-14T22:03:21.583Z,-6.76
2022-12-14T22:08:26.171Z,-6.94
2022-12-14T22:13:29.445Z,-6.80
2022-12-14T22:18:32.640Z,-6.80
2022-12-14T22:23:43.165Z,-7.41
2022-12-14T22:28:47.034Z,-7.54
2022-12-14T22:33:51.121Z,-7.72
2022-12-14T22:38:57.392Z,-7.43
2022-12-14T22:44:00.318Z,-7.52
2022-12-14T22:49:04.155Z,-7.70
2022-12-14T22:54:08.417Z,-7.68
2022-12-14T22:59:14.759Z,-7.71
2022-12-14T23:04:17.929Z,-7.77
2022-12-14T23:09:39.558Z,-8.26
2022-12-14T23:14:59.687Z,-8.10
2022-12-14T23:20:19.975Z,-8.24
2022-12-14T23:25:41.851Z,-8.06
2022-12-14T23:31:02.528Z,-8.09
2022-12-14T23:36:23.666Z,-8.17
2022-12-14T23:41:45.139Z,-8.28
2022-12-14T23:47:05.505Z,-8.45
2022-12-14T23:52:25.765Z,-8.69
2022-12-14T23:57:47.582Z,-8.61
